Time;durP1;ratioP1;P1;durP2;ratioP2;P2;SDS_P1;SDS_P2;PMS_P1;PMS_P2;Temp;Humidity;BMP_temperature;BMP_pressure;BME280_temperature;BME280_humidity;BME280_pressure;Samples;Min_cycle;Max_cycle;Signal;HPM_P1;HPM_P2
2021/01/19 00:00:28;;;;;;;114.33;50.97;;;;;;;;;;4894629;28;20613;-74
2021/01/19 00:02:50;;;;;;;102.93;45.63;;;;;;;;;;4901620;28;20636;-74
2021/01/19 00:05:13;;;;;;;99.53;47.03;;;-3.80;1.00;;;;;;4895997;28;20662;-74
2021/01/19 00:07:35;;;;;;;98.63;45.97;;;;;;;;;;4895576;28;20671;-74
2021/01/19 00:09:58;;;;;;;91.77;41.60;;;-4.00;1.00;;;;;;4895473;28;20617;-73
2021/01/19 00:12:21;;;;;;;91.07;43.03;;;;;;;;;;4894242;28;20617;-74
2021/01/19 00:14:44;;;;;;;77.77;38.40;;;;;;;;;;4904119;28;20663;-74
2021/01/19 00:17:06;;;;;;;74.63;33.90;;;;;;;;;;4904306;28;20630;-74
2021/01/19 00:19:29;;;;;;;83.40;36.97;;;;;;;;;;4904242;28;20614;-73
2021/01/19 00:21:51;;;;;;;75.33;34.53;;;;;;;;;;4895946;28;20637;-74
2021/01/19 00:24:13;;;;;;;54.80;26.40;;;;;;;;;;4904146;28;20636;-73
2021/01/19 00:26:37;;;;;;;41.33;18.53;;;-3.50;1.00;;;;;;4896439;28;20602;-76
2021/01/19 00:28:59;;;;;;;38.20;17.50;;;;;;;;;;4861755;28;20723;-76
2021/01/19 00:31:21;;;;;;;35.50;15.20;;;;;;;;;;4881025;28;20618;-75
2021/01/19 00:33:44;;;;;;;30.00;14.13;;;;;;;;;;4894705;28;21162;-75
2021/01/19 00:36:06;;;;;;;25.97;12.87;;;-2.40;47.30;;;;;;4895312;28;20602;-75
2021/01/19 00:38:29;;;;;;;32.10;14.50;;;;;;;;;;4895913;28;20610;-75
2021/01/19 00:40:51;;;;;;;26.27;13.63;;;-2.90;46.30;;;;;;4895384;28;20663;-75
2021/01/19 00:43:14;;;;;;;28.27;13.57;;;-2.70;52.50;;;;;;4895969;28;21020;-75
2021/01/19 00:45:36;;;;;;;26.07;12.73;;;-2.70;33.30;;;;;;4894213;28;21060;-75
2021/01/19 00:47:58;;;;;;;24.60;12.17;;;;;;;;;;4895406;28;20645;-75
2021/01/19 00:50:20;;;;;;;21.90;11.60;;;-2.40;22.60;;;;;;4894610;28;20664;-75
2021/01/19 00:52:43;;;;;;;25.73;11.47;;;;;;;;;;4895997;28;20973;-75
2021/01/19 00:55:08;;;;;;;16.20;9.47;;;-2.50;13.90;;;;;;4896033;28;21074;-75
2021/01/19 00:57:30;;;;;;;20.30;10.77;;;;;;;;;;4892068;28;20621;-75
2021/01/19 00:59:53;;;;;;;19.53;10.47;;;-2.10;1.00;;;;;;4893722;28;20679;-75
2021/01/19 01:02:17;;;;;;;21.10;11.13;;;;;;;;;;4884176;28;20634;-75
2021/01/19 01:04:39;;;;;;;22.40;11.50;;;;;;;;;;4894384;28;21239;-75
2021/01/19 01:07:02;;;;;;;19.30;11.03;;;;;;;;;;4895881;28;20606;-74
2021/01/19 01:09:24;;;;;;;19.07;10.57;;;;;;;;;;4892178;28;20703;-75
2021/01/19 01:11:46;;;;;;;24.07;10.60;;;;;;;;;;4901955;28;20684;-75
2021/01/19 01:14:09;;;;;;;20.90;11.00;;;;;;;;;;4892740;28;20610;-75
2021/01/19 01:16:32;;;;;;;25.57;10.97;;;-1.80;26.10;;;;;;4895479;28;21447;-76
2021/01/19 01:18:54;;;;;;;20.53;10.37;;;;;;;;;;4894715;28;20605;-76
2021/01/19 01:21:16;;;;;;;13.97;8.03;;;;;;;;;;4892325;28;21021;-75
2021/01/19 01:23:38;;;;;;;17.00;9.60;;;;;;;;;;4895317;28;21219;-75
2021/01/19 01:26:01;;;;;;;16.90;9.47;;;;;;;;;;4895454;28;20658;-75
2021/01/19 01:28:23;;;;;;;16.67;9.60;;;;;;;;;;4894889;28;20654;-76
2021/01/19 01:30:45;;;;;;;14.87;8.67;;;;;;;;;;4892188;28;21190;-75
2021/01/19 01:33:10;;;;;;;17.47;9.63;;;-1.90;56.60;;;;;;4895582;28;20703;-75
2021/01/19 01:35:33;;;;;;;18.40;10.03;;;;;;;;;;4893694;28;20671;-75
2021/01/19 01:37:55;;;;;;;15.97;9.80;;;;;;;;;;4895046;28;20621;-75
2021/01/19 01:40:19;;;;;;;20.40;11.10;;;-1.70;46.00;;;;;;4894307;28;20610;-75
2021/01/19 01:42:41;;;;;;;17.23;8.63;;;;;;;;;;4891880;28;20622;-76
2021/01/19 01:45:04;;;;;;;19.30;10.13;;;-1.70;56.40;;;;;;4892554;28;20663;-75
2021/01/19 01:47:28;;;;;;;19.60;10.57;;;-1.70;60.80;;;;;;4894301;28;20696;-75
2021/01/19 01:49:52;;;;;;;22.17;10.67;;;-1.70;66.30;;;;;;4894828;28;20605;-75
2021/01/19 01:52:14;;;;;;;18.20;10.70;;;;;;;;;;4893037;28;20667;-75
2021/01/19 01:54:36;;;;;;;17.37;10.53;;;;;;;;;;4893240;28;21166;-75
2021/01/19 01:56:59;;;;;;;17.97;10.57;;;;;;;;;;4894941;28;20655;-75
2021/01/19 01:59:21;;;;;;;17.83;10.53;;;;;;;;;;4894890;28;20610;-74
2021/01/19 02:01:43;;;;;;;20.60;11.70;;;-0.70;95.40;;;;;;4872363;28;20623;-75
2021/01/19 02:04:05;;;;;;;22.23;11.80;;;;;;;;;;4892440;28;20703;-75
2021/01/19 02:06:28;;;;;;;25.27;11.40;;;-1.60;81.00;;;;;;4917081;28;20597;-75
2021/01/19 02:09:02;;;;;;;22.83;12.07;;;-1.60;80.50;;;;;;4888866;28;20653;-75
2021/01/19 02:11:33;;;;;;;22.70;12.13;;;-1.50;78.80;;;;;;4893406;28;21191;-76
2021/01/19 02:14:03;;;;;;;20.23;11.20;;;-1.70;91.80;;;;;;4894269;28;20585;-75
2021/01/19 02:16:36;;;;;;;18.37;10.60;;;-1.70;97.30;;;;;;4893926;28;20671;-75
2021/01/19 02:19:12;;;;;;;20.33;11.57;;;-1.60;83.00;;;;;;4894365;28;20667;-75
2021/01/19 02:21:56;;;;;;;19.33;10.87;;;-1.40;88.00;;;;;;4885600;28;20667;-74
2021/01/19 02:24:31;;;;;;;21.20;11.97;;;-1.60;90.10;;;;;;4892919;28;20679;-75
2021/01/19 02:27:47;;;;;;;19.60;11.33;;;-1.50;99.90;;;;;;4893719;28;20631;-75
2021/01/19 02:30:22;;;;;;;19.90;11.30;;;-1.50;93.60;;;;;;4867300;28;20968;-75
2021/01/19 02:33:03;;;;;;;19.63;11.70;;;-1.20;96.10;;;;;;4892354;28;21184;-74
2021/01/19 02:35:29;;;;;;;20.50;10.57;;;-1.50;95.60;;;;;;4910635;28;20629;-74
2021/01/19 02:37:58;;;;;;;17.27;11.00;;;-1.30;99.90;;;;;;4892176;28;20621;-74
2021/01/19 02:40:22;;;;;;;21.13;12.83;;;-1.40;97.20;;;;;;4893438;28;20667;-74
2021/01/19 02:42:50;;;;;;;14.97;8.43;;;-1.40;98.30;;;;;;4892916;28;20617;-74
2021/01/19 02:45:13;;;;;;;17.37;10.70;;;-1.30;99.90;;;;;;4894278;28;20606;-75
2021/01/19 02:47:35;;;;;;;21.83;12.07;;;;;;;;;;4892899;28;20646;-75
2021/01/19 02:49:58;;;;;;;26.03;12.67;;;-1.40;99.10;;;;;;4894310;28;20602;-75
2021/01/19 02:52:20;;;;;;;23.13;11.70;;;-1.40;99.90;;;;;;4891801;28;20625;-74
2021/01/19 02:54:44;;;;;;;20.63;11.27;;;-1.40;99.90;;;;;;4892304;28;20651;-73
2021/01/19 02:57:16;;;;;;;19.10;11.67;;;-1.10;99.90;;;;;;4892500;28;20672;-75
2021/01/19 02:59:49;;;;;;;22.17;12.73;;;-1.30;99.90;;;;;;4887606;28;20636;-75
2021/01/19 03:02:16;;;;;;;20.07;10.47;;;-1.30;99.90;;;;;;4890761;28;20654;-75
2021/01/19 03:04:41;;;;;;;20.30;11.53;;;-1.30;99.90;;;;;;4894276;28;20640;-75
2021/01/19 03:07:08;;;;;;;20.23;11.80;;;-1.00;99.90;;;;;;4892044;28;20711;-73
2021/01/19 03:09:31;;;;;;;25.00;12.13;;;-1.20;98.90;;;;;;4892215;28;20703;-75
2021/01/19 03:11:56;;;;;;;26.90;14.00;;;-1.20;99.90;;;;;;4893553;28;20663;-75
2021/01/19 03:14:18;;;;;;;23.60;13.27;;;;;;;;;;4892196;28;20634;-75
2021/01/19 03:16:40;;;;;;;23.90;12.00;;;;;;;;;;4893849;28;20610;-74
2021/01/19 03:19:03;;;;;;;23.00;12.80;;;;;;;;;;4884752;28;21014;-75
2021/01/19 03:21:25;;;;;;;22.07;13.10;;;-1.20;99.90;;;;;;4896852;28;20657;-74
2021/01/19 03:23:48;;;;;;;22.17;12.30;;;-1.20;99.80;;;;;;4905463;28;20622;-74
2021/01/19 03:26:10;;;;;;;17.03;10.30;;;-1.60;99.90;;;;;;4897381;28;20659;-74
2021/01/19 03:28:33;;;;;;;22.30;12.80;;;;;;;;;;4897444;28;20691;-75
2021/01/19 03:30:55;;;;;;;24.60;16.03;;;;;;;;;;4894472;28;21185;-75
2021/01/19 03:33:17;;;;;;;24.97;12.53;;;;;;;;;;4894853;28;21074;-75
2021/01/19 03:35:40;;;;;;;24.03;12.87;;;;;;;;;;4895735;28;21185;-74
2021/01/19 03:38:02;;;;;;;23.97;13.33;;;-0.80;99.90;;;;;;4896083;28;20618;-74
2021/01/19 03:40:25;;;;;;;17.30;10.77;;;-1.10;99.90;;;;;;4896435;28;20666;-75
2021/01/19 03:42:47;;;;;;;22.00;12.23;;;-1.00;99.90;;;;;;4894744;28;20655;-74
2021/01/19 03:45:10;;;;;;;23.07;12.13;;;-1.40;99.90;;;;;;4896601;28;21238;-74
2021/01/19 03:47:35;;;;;;;20.97;12.47;;;-1.10;99.90;;;;;;4896250;28;21155;-73
2021/01/19 03:49:57;;;;;;;18.80;11.67;;;;;;;;;;4896109;28;20651;-74
2021/01/19 03:52:20;;;;;;;20.30;13.07;;;;;;;;;;4896402;28;20643;-73
2021/01/19 03:54:42;;;;;;;19.90;11.63;;;;;;;;;;4896741;28;21142;-74
2021/01/19 03:57:05;;;;;;;18.53;10.90;;;-0.80;99.90;;;;;;4879699;28;20708;-75
2021/01/19 03:59:27;;;;;;;19.70;11.37;;;-1.20;99.90;;;;;;4889273;28;20609;-75
2021/01/19 04:01:49;;;;;;;20.57;11.40;;;-1.20;99.90;;;;;;4893295;28;20629;-74
2021/01/19 04:04:12;;;;;;;16.10;10.70;;;;;;;;;;4895661;28;20717;-75
2021/01/19 04:06:34;;;;;;;17.77;12.17;;;;;;;;;;4897564;28;20605;-75
2021/01/19 04:08:56;;;;;;;18.67;11.40;;;-1.10;99.90;;;;;;4896116;28;20657;-75
2021/01/19 04:11:19;;;;;;;24.03;12.47;;;-0.90;99.90;;;;;;4895704;28;21059;-74
2021/01/19 04:13:42;;;;;;;18.23;10.97;;;-0.80;99.90;;;;;;4896136;28;21089;-75
2021/01/19 04:16:04;;;;;;;17.07;10.63;;;-0.90;99.90;;;;;;4878141;28;20626;-73
2021/01/19 04:18:26;;;;;;;18.93;10.97;;;;;;;;;;4892086;28;20725;-74
2021/01/19 04:20:49;;;;;;;18.77;10.27;;;;;;;;;;4903531;28;21334;-74
2021/01/19 04:23:14;;;;;;;17.63;10.80;;;-1.20;99.90;;;;;;4897659;28;20611;-74
2021/01/19 04:25:36;;;;;;;16.50;10.87;;;;;;;;;;4897275;28;20992;-74
2021/01/19 04:27:58;;;;;;;18.47;11.00;;;;;;;;;;4896571;28;20675;-73
2021/01/19 04:30:22;;;;;;;18.20;11.40;;;-0.70;99.90;;;;;;4894856;28;20636;-73
2021/01/19 04:32:46;;;;;;;17.57;10.83;;;;;;;;;;4895235;28;20625;-73
2021/01/19 04:35:09;;;;;;;17.87;11.17;;;-1.10;99.90;;;;;;4896510;28;20618;-73
2021/01/19 04:37:31;;;;;;;18.60;10.23;;;-0.80;99.90;;;;;;4896236;28;20670;-74
2021/01/19 04:39:53;;;;;;;18.60;10.13;;;-0.90;99.90;;;;;;4897669;28;20614;-74
2021/01/19 04:42:19;;;;;;;18.93;11.10;;;-1.10;99.90;;;;;;4896172;28;20674;-73
2021/01/19 04:44:41;;;;;;;17.60;10.73;;;;;;;;;;4897270;28;20671;-73
2021/01/19 04:47:04;;;;;;;16.67;9.40;;;-0.80;99.90;;;;;;4896859;28;20618;-72
2021/01/19 04:49:29;;;;;;;15.33;9.53;;;-0.80;99.90;;;;;;4895199;28;21206;-74
2021/01/19 04:51:52;;;;;;;19.73;11.03;;;-0.70;99.90;;;;;;4896213;28;21161;-73
2021/01/19 04:54:17;;;;;;;17.73;10.30;;;-0.80;99.90;;;;;;4895653;28;20626;-73
2021/01/19 04:56:49;;;;;;;17.53;10.63;;;-0.40;99.90;;;;;;4896878;28;20628;-74
2021/01/19 04:59:12;;;;;;;15.80;9.43;;;-0.70;99.90;;;;;;4893023;28;21039;-74
2021/01/19 05:02:10;;;;;;;17.87;10.67;;;0.20;99.90;;;;;;4892855;28;20641;-73
2021/01/19 05:04:51;;;;;;;17.90;11.00;;;-0.70;99.90;;;;;;4896528;28;20620;-73
2021/01/19 05:07:31;;;;;;;15.97;10.63;;;-0.50;99.90;;;;;;4895195;28;20610;-73
2021/01/19 05:10:07;;;;;;;18.40;10.07;;;-0.60;99.90;;;;;;4878138;28;20732;-74
2021/01/19 05:12:37;;;;;;;20.50;11.10;;;-0.70;99.90;;;;;;4889227;28;20661;-74
2021/01/19 05:15:02;;;;;;;18.27;10.30;;;-0.70;99.90;;;;;;4895192;28;21007;-74
2021/01/19 05:17:25;;;;;;;20.10;12.00;;;-0.60;99.90;;;;;;4891344;28;20683;-74
2021/01/19 05:19:47;;;;;;;21.13;12.77;;;;;;;;;;4896267;28;20702;-74
2021/01/19 05:22:16;;;;;;;17.87;11.70;;;0.30;99.90;;;;;;4894344;28;20649;-74
2021/01/19 05:24:41;;;;;;;17.70;10.07;;;-0.60;99.90;;;;;;4895764;28;20940;-74
2021/01/19 05:27:03;;;;;;;18.53;10.83;;;;;;;;;;4894919;28;20634;-73
2021/01/19 05:29:27;;;;;;;21.40;12.03;;;;;;;;;;4888264;28;20657;-74
2021/01/19 05:31:51;;;;;;;21.10;12.43;;;-0.60;99.90;;;;;;4895214;28;20601;-73
2021/01/19 05:34:14;;;;;;;20.07;11.60;;;;;;;;;;4894943;28;20676;-73
2021/01/19 05:36:38;;;;;;;20.40;11.87;;;-0.70;99.90;;;;;;4896120;28;20655;-73
2021/01/19 05:39:01;;;;;;;20.50;12.13;;;-0.70;99.90;;;;;;4894487;28;21244;-73
2021/01/19 05:41:28;;;;;;;19.90;11.57;;;-0.80;99.90;;;;;;4895320;28;20626;-73
2021/01/19 05:43:53;;;;;;;20.60;12.83;;;;;;;;;;4894733;28;20597;-73
2021/01/19 05:46:27;;;;;;;24.17;12.03;;;-0.70;99.90;;;;;;4877534;28;20716;-74
2021/01/19 05:48:53;;;;;;;21.17;12.27;;;-0.40;99.90;;;;;;4895543;28;20621;-73
2021/01/19 05:51:16;;;;;;;21.47;12.50;;;-0.40;99.90;;;;;;4894840;28;20624;-73
2021/01/19 05:53:39;;;;;;;20.90;12.70;;;-0.40;99.90;;;;;;4893791;28;21220;-75
2021/01/19 05:56:03;;;;;;;21.23;13.60;;;-0.40;99.90;;;;;;4893210;28;20610;-73
2021/01/19 05:58:35;;;;;;;21.93;11.90;;;-0.40;99.90;;;;;;4895686;28;20663;-73
2021/01/19 06:01:01;;;;;;;21.60;11.53;;;-0.60;99.90;;;;;;4892077;28;20618;-75
2021/01/19 06:03:23;;;;;;;20.27;11.90;;;-0.50;99.90;;;;;;4895122;28;20589;-73
2021/01/19 06:05:46;;;;;;;19.90;12.10;;;;;;;;;;4894302;28;20659;-73
2021/01/19 06:08:10;;;;;;;21.50;12.40;;;-0.30;99.90;;;;;;4893763;28;21158;-74
2021/01/19 06:10:32;;;;;;;18.10;11.43;;;-0.10;99.90;;;;;;4894713;28;20687;-75
2021/01/19 06:12:56;;;;;;;23.17;13.43;;;0.60;99.90;;;;;;4895772;28;21235;-75
2021/01/19 06:15:27;;;;;;;20.27;12.03;;;-0.30;99.90;;;;;;4894215;28;20625;-74
2021/01/19 06:17:50;;;;;;;21.50;12.10;;;0.10;99.90;;;;;;4894458;28;21179;-75
2021/01/19 06:20:13;;;;;;;20.30;12.17;;;-0.70;99.90;;;;;;4894415;28;20683;-73
2021/01/19 06:22:35;;;;;;;21.80;12.30;;;;;;;;;;4895271;28;20641;-75
2021/01/19 06:24:58;;;;;;;22.23;12.93;;;;;;;;;;4893768;28;20987;-75
2021/01/19 06:27:28;;;;;;;21.70;12.30;;;-0.20;99.90;;;;;;4894337;28;20971;-73
2021/01/19 06:30:01;;;;;;;20.70;12.63;;;-0.20;99.90;;;;;;4895424;28;20663;-76
2021/01/19 06:32:24;;;;;;;22.40;13.23;;;;;;;;;;4893648;28;20582;-74
2021/01/19 06:34:46;;;;;;;22.57;12.80;;;0.00;99.90;;;;;;4897375;28;20605;-74
2021/01/19 06:37:09;;;;;;;23.40;12.87;;;-0.20;99.90;;;;;;4903958;28;20960;-75
2021/01/19 06:39:34;;;;;;;22.67;14.17;;;0.10;99.90;;;;;;4901037;28;21083;-75
2021/01/19 06:42:06;;;;;;;27.93;13.47;;;0.20;99.90;;;;;;4893336;28;20618;-74
2021/01/19 06:44:34;;;;;;;21.90;12.83;;;-0.10;99.90;;;;;;4893111;28;21178;-74
2021/01/19 06:46:58;;;;;;;21.83;13.23;;;-0.20;99.90;;;;;;4895217;28;20602;-75
2021/01/19 06:49:23;;;;;;;20.80;12.73;;;0.00;99.90;;;;;;4893928;28;20645;-75
2021/01/19 06:51:56;;;;;;;22.37;11.83;;;0.00;99.90;;;;;;4894380;28;20619;-74
2021/01/19 06:54:20;;;;;;;22.50;12.63;;;0.10;99.90;;;;;;4894720;28;20619;-74
2021/01/19 06:56:55;;;;;;;22.03;12.63;;;0.10;99.90;;;;;;4896666;28;20655;-74
2021/01/19 06:59:31;;;;;;;22.13;13.47;;;0.10;99.90;;;;;;4899053;28;20632;-74
2021/01/19 07:01:58;;;;;;;21.20;13.53;;;0.10;99.90;;;;;;4892979;28;20641;-74
2021/01/19 07:04:23;;;;;;;19.43;11.53;;;0.10;99.90;;;;;;4898663;28;21134;-74
2021/01/19 07:07:12;;;;;;;26.23;12.50;;;0.00;99.90;;;;;;4898872;28;20939;-74
2021/01/19 07:10:11;;;;;;;20.60;13.37;;;0.00;99.90;;;;;;4894757;28;21219;-74
2021/01/19 07:12:55;;;;;;;25.53;15.17;;;0.20;99.90;;;;;;4893535;28;20614;-75
2021/01/19 07:15:21;;;;;;;22.03;13.30;;;0.20;99.40;;;;;;4898257;28;21174;-74
2021/01/19 07:18:17;;;;;;;23.43;13.17;;;0.20;99.20;;;;;;4895859;28;21015;-74
2021/01/19 07:21:00;;;;;;;22.90;13.67;;;0.10;99.90;;;;;;4895822;28;20641;-75
2021/01/19 07:23:35;;;;;;;21.50;12.67;;;0.20;99.90;;;;;;4920455;28;20991;-74
2021/01/19 07:25:57;;;;;;;22.37;13.87;;;;;;;;;;4898046;28;21033;-74
2021/01/19 07:28:19;;;;;;;22.50;14.07;;;0.30;99.90;;;;;;4898279;28;20975;-74
2021/01/19 07:30:42;;;;;;;25.67;15.00;;;;;;;;;;4897857;28;20606;-75
2021/01/19 07:33:05;;;;;;;23.97;14.23;;;0.40;99.90;;;;;;4897094;28;20614;-75
2021/01/19 07:35:30;;;;;;;25.23;12.83;;;0.50;99.90;;;;;;4896867;28;20687;-74
2021/01/19 07:37:59;;;;;;;22.17;13.43;;;0.60;95.50;;;;;;4897744;28;20610;-75
2021/01/19 07:40:21;;;;;;;19.83;12.63;;;0.70;97.30;;;;;;4898235;28;20898;-74
2021/01/19 07:42:44;;;;;;;20.17;12.13;;;;;;;;;;4898171;28;21158;-74
2021/01/19 07:45:09;;;;;;;18.27;11.80;;;1.00;99.90;;;;;;4897795;28;20643;-74
2021/01/19 07:47:36;;;;;;;18.87;12.67;;;0.10;99.90;;;;;;4898715;28;20635;-75
2021/01/19 07:50:03;;;;;;;21.07;11.93;;;0.70;90.40;;;;;;4898697;28;20630;-75
2021/01/19 07:52:36;;;;;;;18.00;11.67;;;0.50;99.90;;;;;;4898567;28;20594;-74
2021/01/19 07:54:58;;;;;;;19.03;11.70;;;1.00;99.90;;;;;;4898305;28;21099;-75
2021/01/19 07:57:21;;;;;;;16.43;10.70;;;0.50;99.50;;;;;;4898190;28;20651;-74
2021/01/19 07:59:44;;;;;;;20.20;11.73;;;0.60;99.70;;;;;;4898471;28;20639;-75
2021/01/19 08:02:06;;;;;;;18.80;11.60;;;;;;;;;;4876999;28;20693;-75
2021/01/19 08:04:30;;;;;;;16.60;11.10;;;0.70;88.80;;;;;;4897920;28;20648;-75
2021/01/19 08:06:53;;;;;;;19.13;12.60;;;1.00;98.90;;;;;;4896027;28;20544;-75
2021/01/19 08:09:15;;;;;;;20.37;11.60;;;;;;;;;;4894781;28;21278;-74
2021/01/19 08:11:38;;;;;;;16.83;11.17;;;1.10;81.70;;;;;;4893627;28;20678;-73
2021/01/19 08:14:00;;;;;;;20.03;11.27;;;1.20;97.90;;;;;;4895975;28;20710;-75
2021/01/19 08:16:27;;;;;;;17.00;11.17;;;1.10;94.30;;;;;;4881579;28;20691;-74
2021/01/19 08:18:58;;;;;;;17.67;11.00;;;1.40;97.80;;;;;;4894803;28;20993;-74
2021/01/19 08:21:21;;;;;;;16.87;10.87;;;1.00;91.10;;;;;;4896259;28;20649;-74
2021/01/19 08:23:44;;;;;;;19.53;12.93;;;1.20;78.80;;;;;;4897159;28;20606;-75
2021/01/19 08:26:08;;;;;;;20.43;12.80;;;1.20;82.70;;;;;;4897412;28;21219;-74
2021/01/19 08:28:31;;;;;;;20.93;12.57;;;;;;;;;;4896164;28;20609;-75
2021/01/19 08:30:53;;;;;;;18.73;12.33;;;1.00;90.10;;;;;;4895407;28;20715;-75
2021/01/19 08:33:16;;;;;;;17.53;11.10;;;1.30;90.30;;;;;;4879228;28;20715;-75
2021/01/19 08:35:39;;;;;;;17.03;10.93;;;1.50;99.70;;;;;;4891325;28;20605;-74
2021/01/19 08:38:03;;;;;;;18.60;11.20;;;1.40;83.10;;;;;;4879410;28;21134;-75
2021/01/19 08:40:28;;;;;;;15.30;10.47;;;1.50;95.50;;;;;;4910801;28;20616;-74
2021/01/19 08:42:50;;;;;;;19.47;11.70;;;1.70;93.00;;;;;;4895653;28;20201;-75
2021/01/19 08:45:13;;;;;;;18.43;11.97;;;1.60;71.10;;;;;;4889864;28;20218;-75
2021/01/19 08:47:37;;;;;;;14.97;10.27;;;1.70;65.90;;;;;;4895466;28;20222;-75
2021/01/19 08:49:59;;;;;;;16.07;10.93;;;;;;;;;;4894374;28;20638;-74
2021/01/19 08:52:26;;;;;;;16.80;10.87;;;1.70;78.80;;;;;;4895375;28;20197;-74
2021/01/19 08:54:49;;;;;;;16.63;10.73;;;;;;;;;;4903179;28;20197;-74
2021/01/19 08:57:20;;;;;;;15.17;10.57;;;1.90;89.90;;;;;;4904990;28;20620;-74
2021/01/19 08:59:50;;;;;;;16.73;11.67;;;1.70;66.70;;;;;;4894316;28;20966;-75
2021/01/19 09:02:12;;;;;;;17.37;11.57;;;;;;;;;;4891662;28;20267;-75
2021/01/19 09:04:35;;;;;;;17.17;10.50;;;;;;;;;;4894989;28;20201;-74
2021/01/19 09:07:07;;;;;;;14.70;9.43;;;2.00;81.10;;;;;;4896024;28;20598;-73
2021/01/19 09:09:29;;;;;;;15.33;9.50;;;;;;;;;;4887583;28;21194;-75
2021/01/19 09:11:52;;;;;;;15.80;10.40;;;;;;;;;;4876570;28;20615;-75
2021/01/19 09:14:15;;;;;;;16.70;11.03;;;1.70;85.50;;;;;;4893886;28;20699;-75
2021/01/19 09:16:39;;;;;;;16.47;10.90;;;1.90;62.70;;;;;;4878271;28;20181;-73
2021/01/19 09:19:04;;;;;;;16.07;10.33;;;1.90;61.70;;;;;;4894270;28;20276;-74
2021/01/19 09:21:28;;;;;;;14.93;10.33;;;;;;;;;;4914102;28;21259;-74
2021/01/19 09:23:50;;;;;;;15.10;9.40;;;2.10;59.40;;;;;;4894005;28;20625;-73
2021/01/19 09:26:12;;;;;;;16.17;10.23;;;2.30;65.90;;;;;;4894200;28;20200;-75
2021/01/19 09:28:36;;;;;;;14.53;9.80;;;2.20;78.40;;;;;;4895706;28;20184;-73
2021/01/19 09:31:12;;;;;;;14.00;9.17;;;2.00;58.90;;;;;;4891354;28;20262;-75
2021/01/19 09:33:35;;;;;;;15.57;10.03;;;2.20;53.50;;;;;;4894511;28;20610;-73
2021/01/19 09:36:06;;;;;;;18.77;10.50;;;2.20;57.20;;;;;;4894996;28;20640;-73
2021/01/19 09:38:28;;;;;;;16.47;10.23;;;;;;;;;;4908820;28;20196;-75
2021/01/19 09:40:52;;;;;;;16.67;10.40;;;2.20;69.50;;;;;;4899215;28;20638;-73
2021/01/19 09:43:16;;;;;;;11.13;7.90;;;2.30;76.80;;;;;;4895410;28;20188;-75
2021/01/19 09:45:39;;;;;;;13.40;8.73;;;2.50;58.60;;;;;;4894707;28;20184;-75
2021/01/19 09:48:02;;;;;;;14.00;9.20;;;2.00;36.00;;;;;;4894447;28;20201;-75
2021/01/19 09:50:25;;;;;;;13.37;9.70;;;2.20;50.90;;;;;;4846075;28;20222;-74
2021/01/19 09:52:47;;;;;;;14.63;9.83;;;;;;;;;;4883657;28;20207;-74
2021/01/19 09:55:11;;;;;;;13.57;9.00;;;2.30;50.60;;;;;;4896116;28;20189;-75
2021/01/19 09:57:33;;;;;;;16.57;9.63;;;2.10;61.70;;;;;;4892866;28;20660;-75
2021/01/19 09:59:55;;;;;;;14.50;8.90;;;2.60;56.20;;;;;;4895302;28;20608;-75
2021/01/19 10:02:28;;;;;;;12.97;9.50;;;2.40;43.80;;;;;;4887189;28;20341;-73
2021/01/19 10:04:59;;;;;;;13.13;8.40;;;2.80;42.10;;;;;;4895230;28;20177;-75
2021/01/19 10:07:28;;;;;;;14.77;10.83;;;2.70;54.40;;;;;;4893178;28;20206;-75
2021/01/19 10:09:50;;;;;;;14.27;9.17;;;2.80;34.60;;;;;;4894359;28;20232;-73
2021/01/19 10:12:12;;;;;;;15.87;9.30;;;;;;;;;;4875726;28;20193;-74
2021/01/19 10:14:35;;;;;;;12.80;8.20;;;3.50;30.80;;;;;;4893808;28;20656;-73
2021/01/19 10:16:58;;;;;;;12.47;8.70;;;3.10;35.90;;;;;;4893999;28;20192;-75
2021/01/19 10:19:21;;;;;;;12.10;8.67;;;3.50;26.00;;;;;;4893961;28;20681;-73
2021/01/19 10:21:48;;;;;;;13.37;9.17;;;4.10;23.70;;;;;;4892858;28;20258;-74
2021/01/19 10:24:15;;;;;;;12.30;8.83;;;4.60;1.10;;;;;;4894437;28;20189;-75
2021/01/19 10:26:37;;;;;;;14.67;9.30;;;;;;;;;;4893433;28;20584;-75
2021/01/19 10:28:59;;;;;;;11.00;8.40;;;4.00;1.00;;;;;;4892872;28;20223;-75
2021/01/19 10:31:23;;;;;;;12.47;8.83;;;4.30;1.00;;;;;;4891689;28;20228;-75
2021/01/19 10:33:56;;;;;;;11.90;8.73;;;4.20;1.00;;;;;;4894152;28;20188;-75
2021/01/19 10:36:18;;;;;;;11.97;7.87;;;4.30;1.00;;;;;;4894659;28;20189;-76
2021/01/19 10:38:43;;;;;;;11.70;7.90;;;4.20;1.00;;;;;;4894563;28;20522;-76
2021/01/19 10:41:05;;;;;;;10.73;7.57;;;4.10;1.00;;;;;;4892903;28;20205;-75
2021/01/19 10:43:28;;;;;;;8.80;6.20;;;4.50;99.90;;;;;;4895510;28;20189;-75
2021/01/19 10:45:50;;;;;;;11.77;7.77;;;4.40;99.90;;;;;;4893425;28;20611;-75
2021/01/19 10:48:20;;;;;;;13.70;8.30;;;4.10;99.90;;;;;;4893291;28;20825;-74
2021/01/19 10:50:42;;;;;;;10.53;7.50;;;4.40;1.00;;;;;;4875209;28;20213;-76
2021/01/19 10:53:05;;;;;;;13.33;8.00;;;4.10;1.00;;;;;;4890858;28;20204;-75
2021/01/19 10:55:29;;;;;;;10.70;7.13;;;4.40;1.00;;;;;;4891235;28;20193;-76
2021/01/19 10:57:56;;;;;;;9.63;6.87;;;4.40;99.90;;;;;;4894102;28;20188;-75
2021/01/19 11:00:18;;;;;;;10.93;7.70;;;5.20;1.00;;;;;;4888101;28;20197;-75
2021/01/19 11:02:41;;;;;;;10.33;8.23;;;;;;;;;;4859936;28;20219;-75
2021/01/19 11:05:03;;;;;;;9.77;6.80;;;4.10;99.90;;;;;;4866856;28;20209;-75
2021/01/19 11:07:26;;;;;;;15.07;11.40;;;;;;;;;;4868852;28;20259;-75
2021/01/19 11:09:48;;;;;;;11.80;8.17;;;4.00;1.00;;;;;;4881646;28;20625;-75
2021/01/19 11:12:11;;;;;;;8.77;6.47;;;4.60;94.20;;;;;;4894346;28;20661;-76
2021/01/19 11:14:33;;;;;;;8.50;6.33;;;;;;;;;;4893801;28;20215;-74
2021/01/19 11:16:55;;;;;;;9.13;6.53;;;4.10;99.90;;;;;;4897571;28;20228;-74
2021/01/19 11:19:20;;;;;;;7.57;5.40;;;4.10;1.00;;;;;;4891697;28;20721;-76
2021/01/19 11:21:43;;;;;;;7.93;6.10;;;4.30;1.00;;;;;;4893654;28;20558;-73
2021/01/19 11:24:07;;;;;;;8.50;6.77;;;4.40;1.00;;;;;;4894031;28;20185;-75
2021/01/19 11:26:30;;;;;;;7.63;5.90;;;;;;;;;;4892864;28;20588;-75
2021/01/19 11:28:54;;;;;;;8.00;6.20;;;4.20;99.90;;;;;;4892738;28;20314;-74
2021/01/19 11:31:21;;;;;;;7.27;5.10;;;4.30;1.00;;;;;;4892149;28;20239;-76
2021/01/19 11:33:43;;;;;;;8.17;6.37;;;;;;;;;;4885183;28;20197;-75
2021/01/19 11:36:06;;;;;;;6.97;5.20;;;4.30;1.00;;;;;;4893932;28;20188;-75
2021/01/19 11:38:29;;;;;;;6.33;5.00;;;;;;;;;;4894046;28;20528;-75
2021/01/19 11:40:53;;;;;;;8.43;5.63;;;4.40;1.00;;;;;;4893510;28;20193;-75
2021/01/19 11:43:17;;;;;;;7.47;5.67;;;;;;;;;;4894297;28;20204;-75
2021/01/19 11:45:40;;;;;;;7.43;5.23;;;4.10;1.00;;;;;;4897801;28;20189;-75
2021/01/19 11:48:02;;;;;;;7.13;5.90;;;;;;;;;;4896837;28;20712;-75
2021/01/19 11:50:24;;;;;;;7.23;5.77;;;3.70;99.90;;;;;;4897114;28;20254;-74
2021/01/19 11:52:47;;;;;;;8.07;6.10;;;;;;;;;;4894641;28;20651;-74
2021/01/19 11:55:09;;;;;;;7.80;5.33;;;4.10;1.00;;;;;;4896606;28;20754;-74
2021/01/19 11:57:31;;;;;;;7.90;6.03;;;;;;;;;;4897749;28;20596;-74
2021/01/19 11:59:53;;;;;;;11.63;6.73;;;4.10;1.00;;;;;;4896941;28;20193;-75
2021/01/19 12:02:17;;;;;;;8.70;6.00;;;3.80;1.00;;;;;;4894509;28;20219;-74
2021/01/19 12:04:39;;;;;;;7.47;6.03;;;;;;;;;;4879494;28;20859;-75
2021/01/19 12:07:03;;;;;;;9.07;5.60;;;3.80;99.90;;;;;;4898120;28;20189;-75
2021/01/19 12:09:25;;;;;;;8.67;6.37;;;3.90;1.00;;;;;;4897385;28;20234;-74
2021/01/19 12:11:51;;;;;;;8.33;6.20;;;3.70;1.00;;;;;;4896547;28;20278;-75
2021/01/19 12:14:14;;;;;;;8.87;6.10;;;3.80;99.90;;;;;;4896361;28;20534;-74
2021/01/19 12:16:36;;;;;;;8.40;6.10;;;3.70;96.60;;;;;;4896072;28;20242;-75
2021/01/19 12:18:59;;;;;;;7.03;5.30;;;3.60;1.00;;;;;;4897012;28;20189;-74
2021/01/19 12:21:21;;;;;;;7.97;5.93;;;3.90;16.90;;;;;;4878771;28;20282;-75
2021/01/19 12:23:43;;;;;;;7.93;5.90;;;3.80;1.00;;;;;;4896596;28;20181;-75
2021/01/19 12:26:06;;;;;;;7.00;5.63;;;4.30;1.00;;;;;;4895873;28;20197;-75
2021/01/19 12:28:29;;;;;;;8.00;5.80;;;3.80;99.90;;;;;;4896622;28;20197;-76
2021/01/19 12:30:52;;;;;;;8.37;6.00;;;3.90;99.90;;;;;;4896866;28;20205;-75
2021/01/19 12:33:15;;;;;;;8.53;6.00;;;;;;;;;;4897662;28;20253;-74
2021/01/19 12:35:39;;;;;;;8.13;5.63;;;4.10;1.00;;;;;;4895175;28;20204;-75
2021/01/19 12:38:02;;;;;;;5.53;4.90;;;4.40;1.00;;;;;;4895329;28;20651;-75
2021/01/19 12:40:25;;;;;;;7.30;5.23;;;4.20;1.00;;;;;;4894876;28;20196;-75
2021/01/19 12:42:47;;;;;;;6.73;5.23;;;5.90;99.90;;;;;;4897378;28;20189;-75
2021/01/19 12:45:11;;;;;;;7.60;4.97;;;5.80;1.00;;;;;;4886479;28;20226;-75
2021/01/19 12:47:34;;;;;;;5.20;4.00;;;6.70;99.90;;;;;;4902833;28;20192;-74
2021/01/19 12:49:58;;;;;;;6.30;4.67;;;6.40;1.00;;;;;;4894970;28;20273;-75
2021/01/19 12:52:21;;;;;;;4.60;3.63;;;6.50;99.90;;;;;;4898251;28;20201;-74